Airfield :
LOGIN :

Register | Disclaimer

   EN    FR    IT 

 










Legend :    VFR   Marginal VFR   IFR   Intensive IFR   Very Intensive IFR
Visi :
Ceiling :
>= 8 km
>= 3000ft
5 to 8 km
1000 to 3000 ft
1500m to 5 km
500 to 1000 ft
800 to 1500m
200 to 500 ft
< 800m
< 200 ft
Symbols :   Thunderstorms  Fog  Heavy snow  Heavy precipitations  Wind > 20 kt
SIGMETs :     Misc.  Thunderstorms  Icing  Turbulence  Mountain Waves  Volcanic Ashes






- Airport Elevation : 124 ft
- IATA code : AVN


LFMV - Avignon Caumont

EXPIRED METARs :
  • 031530Z AUTO 22012KT 190V250 CAVOK 35/12 Q1016 NOSIG
  • 032330Z AUTO VRB03KT CAVOK 23/18 Q1018
  • 032300Z AUTO 28004KT CAVOK 23/18 Q1018
  • 032230Z AUTO VRB02KT CAVOK 23/17 Q1017
  • 032200Z AUTO 10005KT CAVOK 23/17 Q1017
  • 032130Z AUTO 13004KT CAVOK 24/17 Q1017
  • 032100Z AUTO 19004KT CAVOK 24/17 Q1017

TAF TAF LFMV
Valid from the 03 at 15:00 until the 04 at 15:00 UTC


031400Z 0315/0415 21012KT CAVOK
TEMPO 0320/0403 VRB10KT FEW110TCU
BECMG 0403/0405 05008KT
BECMG 0407/0409 33010KT
ATIS : +33 4 90 84 32 84



MET'MAP, your aeronautical weather chart ! - Copyright ORBIFLY December 2007 - Disclaimer

ORBIFLY MET'MAP TEAM :

Programming & Development : Alexandra Zaïnal
Original concept : Baudouin d'Aumeries
Technical & hardware support : Manuel Goepfert
Assistance : Marc-Olivier Méhu




SOURCES & CREDITS :

   NOAA